Summerford, Canada
Current Conditions -  °F | °C
As of 10:00 AM on Friday 24 Oct 2014 (Local Time) from CYQX Reporting Station
Moderate Fog Moderate Fog  
Wind Chill: 39°   Ceiling: 100
Heat Index: 43°   Visibility: 0.12mi
Dew Point: 43°   Wind: 7mph
Humidity: 100%   Direction: 80°E
Pressure: 30.01"   Gusts: NA
Location:  49.48°N, 54.83°W
Report Text: CYQX 241200Z 08006KT 1/8SM R03/1400FT/N R13/1000FT/N FG VV001 06/06 A3001 RMK FG8 SLP168
Loading
Personal Weather Stations






























Interactive Weather Map
Tropical Storm Tracking
New forecast layout! Learn more

10-Day Weather Forecast

Advertisements
Track Severe Weather on mobile